LDRI/RJK METAR and TAF weather

Enter ICAO airport designator
Station Type Date Time Source
LDRI METAR 2019/06/18 14:30 UTC NOAA

LDRI 181430Z 28008KT 9999 FEW040 28/16 Q1013


Station Type Date Time Source
LDRI Decoded METAR 2019/06/18 14:30 UTC NOAA

Rijeka / Omisalj, Croatia (LDRI) 45-13N 014-35E
Jun 18, 2019 - 10:30 AM EDT / 2019.06.18 1430 UTC
Wind: from the W (280 degrees) at 9 MPH (8 KT):0
Visibility: greater than 7 mile(s):0
Sky conditions: mostly clear
Temperature: 82 F (28 C)
Dew Point: 60 F (16 C)
Relative Humidity: 48%
Pressure (altimeter): 29.91 in. Hg (1013 hPa)
ob: LDRI 181430Z 28008KT 9999 FEW040 28/16 Q1013
cycle: 14

Station Type Date Time Source
LDRI TAF 2019/06/18 12:27 UTC NOAA

TAF LDRI 181125Z 1812/1912 02006KT 9999 FEW040 TX29/1812Z TN20/1903Z PROB30
TEMPO 1812/1817 TS FEW040CB
BECMG 1910/1912 30006KT

Example: see airport list